createdAt,value
2018-12-12T00:02:04.711Z,9.07
2018-12-12T00:07:06.012Z,10.60
2018-12-12T00:12:07.197Z,9.30
2018-12-12T00:17:08.434Z,7.77
2018-12-12T00:22:09.594Z,8.07
2018-12-12T00:27:10.782Z,8.27
2018-12-12T00:32:11.981Z,8.90
2018-12-12T00:37:13.171Z,10.63
2018-12-12T00:42:14.375Z,9.77
2018-12-12T00:47:15.887Z,10.10
2018-12-12T00:52:17.047Z,7.87
2018-12-12T00:57:19.448Z,6.97
2018-12-12T01:02:20.622Z,5.40
2018-12-12T01:07:21.850Z,4.20
2018-12-12T01:12:23.149Z,4.77
2018-12-12T01:17:24.337Z,4.50
2018-12-12T01:22:25.573Z,5.40
2018-12-12T01:27:26.762Z,4.37
2018-12-12T01:32:28.492Z,5.33
2018-12-12T01:37:29.675Z,5.90
2018-12-12T01:42:30.850Z,5.10
2018-12-12T01:47:32.032Z,5.07
2018-12-12T01:52:33.232Z,5.67
2018-12-12T01:57:34.442Z,5.70
2018-12-12T02:02:35.610Z,5.83
2018-12-12T02:07:36.792Z,6.70
2018-12-12T02:12:37.987Z,7.10
2018-12-12T02:17:39.346Z,6.43
2018-12-12T02:22:40.527Z,6.87
2018-12-12T02:27:41.697Z,6.83
2018-12-12T02:32:42.879Z,6.07
2018-12-12T02:37:44.197Z,6.07
2018-12-12T02:42:45.357Z,6.03
2018-12-12T02:47:46.527Z,5.93
2018-12-12T02:52:47.702Z,6.53
2018-12-12T02:57:48.881Z,6.40
2018-12-12T03:02:50.052Z,5.77
2018-12-12T03:07:51.230Z,5.37
2018-12-12T03:12:52.389Z,5.93
2018-12-12T03:17:53.557Z,5.80
2018-12-12T03:22:54.730Z,5.60
2018-12-12T03:27:55.895Z,5.63
2018-12-12T03:32:57.200Z,5.57
2018-12-12T03:37:58.446Z,6.57
2018-12-12T03:42:59.629Z,6.50
2018-12-12T03:48:00.823Z,5.70
2018-12-12T03:53:02.001Z,5.60
2018-12-12T03:58:03.309Z,5.77
2018-12-12T04:03:04.483Z,4.90
2018-12-12T04:08:05.642Z,5.43
2018-12-12T04:13:06.800Z,5.20
2018-12-12T04:18:07.957Z,5.80
2018-12-12T04:23:09.147Z,6.03
2018-12-12T04:28:10.305Z,6.00
2018-12-12T04:33:11.597Z,6.53
2018-12-12T04:38:12.754Z,7.07
2018-12-12T04:43:13.911Z,6.53
2018-12-12T04:48:15.083Z,6.77
2018-12-12T04:53:16.289Z,6.60
2018-12-12T04:58:17.478Z,6.53
2018-12-12T05:03:18.651Z,6.80
2018-12-12T05:08:19.818Z,6.50
2018-12-12T05:13:20.978Z,6.73
2018-12-12T05:18:22.145Z,6.47
2018-12-12T05:23:23.318Z,7.17
2018-12-12T05:28:24.469Z,7.27
2018-12-12T05:33:25.691Z,8.83
2018-12-12T05:38:26.855Z,11.17
2018-12-12T05:43:28.026Z,12.43
2018-12-12T05:48:29.189Z,12.53
2018-12-12T05:53:30.350Z,14.37
2018-12-12T05:58:31.554Z,12.37
2018-12-12T06:09:01.290Z,16.57
2018-12-12T06:14:02.793Z,13.87
2018-12-12T06:19:03.989Z,10.30
2018-12-12T06:24:05.247Z,10.37
2018-12-12T06:29:06.428Z,10.40
2018-12-12T06:34:07.598Z,10.03
2018-12-12T06:39:08.783Z,12.45
2018-12-12T06:44:09.949Z,9.27
2018-12-12T06:49:11.113Z,9.47
2018-12-12T06:54:12.306Z,9.67
2018-12-12T06:59:13.489Z,10.60
2018-12-12T07:04:14.653Z,9.43
2018-12-12T07:09:15.823Z,10.20
2018-12-12T07:14:17.018Z,9.80
2018-12-12T07:19:18.187Z,9.90
2018-12-12T07:29:48.852Z,9.43
2018-12-12T07:34:50.390Z,8.80
2018-12-12T07:39:51.658Z,11.47
2018-12-12T07:44:52.854Z,13.67
2018-12-12T07:49:54.015Z,11.07
2018-12-12T07:54:55.191Z,10.23
2018-12-12T07:59:56.378Z,11.10
2018-12-12T08:04:57.542Z,11.27
2018-12-12T08:09:58.734Z,11.47
2018-12-12T08:14:59.901Z,9.53
2018-12-12T08:20:01.217Z,10.33
2018-12-12T08:25:02.809Z,11.37
2018-12-12T08:30:05.752Z,11.30
2018-12-12T08:35:07.175Z,11.23
2018-12-12T08:40:08.647Z,10.60
2018-12-12T08:45:09.814Z,12.07
2018-12-12T08:50:11.109Z,10.87
2018-12-12T08:55:17.603Z,10.30
2018-12-12T09:00:15.500Z,14.83
2018-12-12T09:05:16.688Z,15.20
2018-12-12T09:10:17.877Z,13.37
2018-12-12T09:15:19.073Z,14.63
2018-12-12T09:20:20.252Z,13.37
2018-12-12T09:25:21.432Z,12.17
2018-12-12T09:30:22.611Z,13.07
2018-12-12T09:35:23.913Z,10.47
2018-12-12T09:40:25.079Z,12.83
2018-12-12T09:45:26.263Z,12.20
2018-12-12T09:50:27.667Z,11.13
2018-12-12T09:55:29.051Z,9.53
2018-12-12T10:00:30.302Z,11.90
2018-12-12T10:05:31.502Z,11.77
2018-12-12T10:10:32.670Z,11.23
2018-12-12T10:15:33.932Z,11.90
2018-12-12T10:20:35.222Z,13.93
2018-12-12T10:25:36.415Z,13.33
2018-12-12T10:30:37.596Z,14.43
2018-12-12T10:35:38.914Z,14.13
2018-12-12T10:40:40.283Z,13.47
2018-12-12T10:45:41.487Z,13.10
2018-12-12T10:50:42.782Z,16.67
2018-12-12T10:55:43.946Z,16.73
2018-12-12T11:00:47.175Z,18.53
2018-12-12T11:05:48.354Z,20.63
2018-12-12T11:10:49.673Z,13.73
2018-12-12T11:15:50.867Z,15.73
2018-12-12T11:20:52.046Z,14.80
2018-12-12T11:25:53.213Z,16.43
2018-12-12T11:30:54.397Z,16.17
2018-12-12T11:35:55.570Z,16.37
2018-12-12T11:40:56.761Z,17.17
2018-12-12T11:45:57.970Z,16.17
2018-12-12T11:50:59.203Z,15.43
2018-12-12T11:56:00.383Z,15.23
2018-12-12T12:01:01.549Z,14.93
2018-12-12T12:06:02.759Z,13.80
2018-12-12T12:11:03.931Z,14.03
2018-12-12T12:16:05.110Z,14.60
2018-12-12T12:21:06.303Z,14.63
2018-12-12T12:26:07.505Z,13.83
2018-12-12T12:31:08.683Z,14.37
2018-12-12T12:36:09.874Z,16.57
2018-12-12T12:41:11.126Z,17.90
2018-12-12T12:46:12.305Z,17.63
2018-12-12T12:51:13.676Z,14.57
2018-12-12T12:56:14.874Z,15.90
2018-12-12T13:01:16.045Z,16.40
2018-12-12T13:06:17.230Z,15.10
2018-12-12T13:11:18.420Z,16.03
2018-12-12T13:16:19.599Z,13.97
2018-12-12T13:21:20.949Z,13.63
2018-12-12T13:26:22.140Z,13.37
2018-12-12T13:31:23.454Z,16.70
2018-12-12T13:36:24.746Z,16.65
2018-12-12T13:41:25.920Z,16.90
2018-12-12T13:46:27.198Z,14.23
2018-12-12T13:51:28.393Z,13.37
2018-12-12T13:56:29.642Z,12.40
2018-12-12T14:01:30.828Z,15.23
2018-12-12T14:06:32.042Z,19.50
2018-12-12T14:11:33.257Z,16.30
2018-12-12T14:16:34.445Z,16.77
2018-12-12T14:21:35.622Z,16.57
2018-12-12T14:26:36.801Z,16.23
2018-12-12T14:31:38.095Z,16.20
2018-12-12T14:36:39.300Z,15.07
2018-12-12T14:41:40.486Z,13.80
2018-12-12T14:46:41.655Z,13.77
2018-12-12T14:51:42.860Z,14.27
2018-12-12T14:56:44.020Z,14.97
2018-12-12T15:01:45.186Z,15.53
2018-12-12T15:06:46.359Z,14.50
2018-12-12T15:11:47.547Z,15.47
2018-12-12T15:16:48.779Z,15.50
2018-12-12T15:21:49.955Z,15.77
2018-12-12T15:26:51.184Z,17.37
2018-12-12T15:31:52.389Z,14.57
2018-12-12T15:36:53.562Z,15.17
2018-12-12T15:41:54.735Z,16.10
2018-12-12T15:46:55.930Z,14.60
2018-12-12T15:51:57.118Z,14.53
2018-12-12T15:56:59.783Z,15.00
2018-12-12T16:02:01.328Z,14.80
2018-12-12T16:07:02.737Z,14.00
2018-12-12T16:12:03.938Z,16.53
2018-12-12T16:17:05.127Z,15.20
2018-12-12T16:22:06.331Z,15.57
2018-12-12T16:27:07.514Z,15.07
2018-12-12T16:32:09.903Z,14.20
2018-12-12T16:37:11.079Z,17.33
2018-12-12T16:42:12.269Z,13.40
2018-12-12T16:47:13.438Z,12.77
2018-12-12T16:52:14.642Z,14.80
2018-12-12T16:57:15.929Z,15.23
2018-12-12T17:02:17.122Z,15.10
2018-12-12T17:07:18.321Z,15.90
2018-12-12T17:12:20.678Z,15.87
2018-12-12T17:17:21.890Z,16.23
2018-12-12T17:22:23.118Z,17.57
2018-12-12T17:27:24.346Z,15.87
2018-12-12T17:32:25.584Z,14.40
2018-12-12T17:37:26.781Z,13.70
2018-12-12T17:42:27.998Z,11.33
2018-12-12T17:47:29.200Z,10.27
2018-12-12T17:52:30.406Z,9.87
2018-12-12T17:57:31.601Z,9.40
2018-12-12T18:02:32.911Z,8.73
2018-12-12T18:07:34.096Z,9.87
2018-12-12T18:12:35.286Z,8.30
2018-12-12T18:17:36.508Z,8.57
2018-12-12T18:22:37.715Z,9.20
2018-12-12T18:27:38.890Z,6.90
2018-12-12T18:32:40.113Z,6.17
2018-12-12T18:37:41.290Z,6.50
2018-12-12T18:42:42.479Z,6.53
2018-12-12T18:47:43.696Z,10.07
2018-12-12T18:52:44.916Z,6.80
2018-12-12T18:57:46.226Z,5.97
2018-12-12T19:02:47.425Z,4.93
2018-12-12T19:07:48.680Z,4.50
2018-12-12T19:12:49.911Z,6.13
2018-12-12T19:23:25.924Z,5.17
2018-12-12T19:28:27.111Z,5.50
2018-12-12T19:33:28.314Z,5.93
2018-12-12T19:38:29.491Z,6.97
2018-12-12T19:43:30.693Z,7.67
2018-12-12T19:48:31.902Z,7.13
2018-12-12T19:53:33.130Z,6.40
2018-12-12T19:58:34.422Z,6.77
2018-12-12T20:03:35.646Z,6.83
2018-12-12T20:08:36.869Z,7.73
2018-12-12T20:13:38.099Z,8.70
2018-12-12T20:18:39.334Z,9.23
2018-12-12T20:23:40.542Z,7.13
2018-12-12T20:28:41.751Z,6.13
2018-12-12T20:33:42.971Z,6.50
2018-12-12T20:38:44.175Z,6.77
2018-12-12T20:43:45.366Z,8.27
2018-12-12T20:48:46.954Z,7.47
2018-12-12T20:53:48.212Z,9.03
2018-12-12T20:58:49.447Z,7.73
2018-12-12T21:03:51.124Z,6.37
2018-12-12T21:08:52.331Z,4.80
2018-12-12T21:13:53.538Z,4.67
2018-12-12T21:18:54.746Z,4.30
2018-12-12T21:23:55.961Z,3.60
2018-12-12T21:28:57.159Z,4.90
2018-12-12T21:33:58.359Z,4.83
2018-12-12T21:38:59.549Z,4.80
2018-12-12T21:44:01.113Z,6.70
2018-12-12T21:49:02.437Z,6.20
2018-12-12T21:54:04.001Z,5.57
2018-12-12T21:59:05.178Z,4.93
2018-12-12T22:04:06.455Z,5.70
2018-12-12T22:09:07.872Z,4.97
2018-12-12T22:14:09.083Z,5.60
2018-12-12T22:19:10.358Z,5.77
2018-12-12T22:24:12.014Z,4.20
2018-12-12T22:29:13.176Z,5.50
2018-12-12T22:34:14.481Z,6.17
2018-12-12T22:39:15.666Z,6.33
2018-12-12T22:44:16.853Z,5.87
2018-12-12T22:49:18.027Z,7.67
2018-12-12T22:54:19.570Z,14.20
2018-12-12T22:59:20.753Z,13.00
2018-12-12T23:04:21.951Z,12.83
2018-12-12T23:09:23.129Z,8.00
2018-12-12T23:14:24.314Z,8.40
2018-12-12T23:19:25.469Z,7.00
2018-12-12T23:24:26.755Z,5.90
2018-12-12T23:29:28.896Z,7.00
2018-12-12T23:34:30.726Z,6.67
2018-12-12T23:39:31.895Z,5.33
2018-12-12T23:44:33.058Z,5.50
2018-12-12T23:49:34.778Z,5.37
2018-12-12T23:54:35.938Z,6.03
2018-12-12T23:59:37.106Z,5.77
